sensor_id;sensor_type;location;lat;lon;timestamp;pressure;altitude;pressure_sealevel;temperature;humidity
65127;BME280;51927;49.080;19.652;2023-02-15T00:00:03;95906.59;;;26.42;33.87
65127;BME280;51927;49.080;19.652;2023-02-15T00:00:10;95897.72;;;26.42;34.02
65127;BME280;51927;49.080;19.652;2023-02-15T00:00:16;95908.47;;;26.42;34.08
65127;BME280;51927;49.080;19.652;2023-02-15T00:00:21;95910.34;;;26.41;34.26
65127;BME280;51927;49.080;19.652;2023-02-15T00:00:26;95905.78;;;26.42;34.05
65127;BME280;51927;49.080;19.652;2023-02-15T00:00:31;95906.88;;;26.41;34.02
65127;BME280;51927;49.080;19.652;2023-02-15T00:00:36;95904.97;;;26.41;33.92
65127;BME280;51927;49.080;19.652;2023-02-15T00:00:42;95906.09;;;26.40;34.02
65127;BME280;51927;49.080;19.652;2023-02-15T00:00:47;95902.28;;;26.41;34.08
65127;BME280;51927;49.080;19.652;2023-02-15T00:00:52;95906.09;;;26.40;34.09
65127;BME280;51927;49.080;19.652;2023-02-15T00:01:06;95911.47;;;26.40;33.84
65127;BME280;51927;49.080;19.652;2023-02-15T00:01:12;95900.72;;;26.40;34.04
65127;BME280;51927;49.080;19.652;2023-02-15T00:01:17;95905.28;;;26.40;33.89
65127;BME280;51927;49.080;19.652;2023-02-15T00:01:22;95903.41;;;26.40;34.23
65127;BME280;51927;49.080;19.652;2023-02-15T00:01:27;95906.09;;;26.40;34.20
65127;BME280;51927;49.080;19.652;2023-02-15T00:01:33;95906.09;;;26.40;34.09
65127;BME280;51927;49.080;19.652;2023-02-15T00:01:38;95903.41;;;26.40;33.87
65127;BME280;51927;49.080;19.652;2023-02-15T00:01:44;95904.97;;;26.41;34.24
65127;BME280;51927;49.080;19.652;2023-02-15T00:01:49;95913.03;;;26.41;34.01
65127;BME280;51927;49.080;19.652;2023-02-15T00:01:55;95903.41;;;26.40;34.12
65127;BME280;51927;49.080;19.652;2023-02-15T00:02:00;95906.09;;;26.40;34.26
65127;BME280;51927;49.080;19.652;2023-02-15T00:02:06;95905.28;;;26.40;34.22
65127;BME280;51927;49.080;19.652;2023-02-15T00:02:11;95911.47;;;26.40;34.18
65127;BME280;51927;49.080;19.652;2023-02-15T00:02:16;95909.56;;;26.41;34.18
65127;BME280;51927;49.080;19.652;2023-02-15T00:02:21;95900.72;;;26.40;34.07
65127;BME280;51927;49.080;19.652;2023-02-15T00:02:26;95914.16;;;26.40;34.31
65127;BME280;51927;49.080;19.652;2023-02-15T00:02:32;95903.41;;;26.40;34.19
65127;BME280;51927;49.080;19.652;2023-02-15T00:02:37;95907.19;;;26.39;33.77
65127;BME280;51927;49.080;19.652;2023-02-15T00:02:42;95901.81;;;26.39;34.06
65127;BME280;51927;49.080;19.652;2023-02-15T00:02:48;95904.50;;;26.39;34.07
65127;BME280;51927;49.080;19.652;2023-02-15T00:02:53;95906.09;;;26.40;33.92
65127;BME280;51927;49.080;19.652;2023-02-15T00:02:58;95903.41;;;26.40;33.94
65127;BME280;51927;49.080;19.652;2023-02-15T00:03:03;95908.78;;;26.40;34.05
65127;BME280;51927;49.080;19.652;2023-02-15T00:03:08;95907.97;;;26.40;34.07
65127;BME280;51927;49.080;19.652;2023-02-15T00:03:15;95911.47;;;26.40;34.13
65127;BME280;51927;49.080;19.652;2023-02-15T00:03:21;95908.78;;;26.40;34.12
65127;BME280;51927;49.080;19.652;2023-02-15T00:03:26;95899.13;;;26.39;34.00
65127;BME280;51927;49.080;19.652;2023-02-15T00:03:32;95909.06;;;26.39;34.10
65127;BME280;51927;49.080;19.652;2023-02-15T00:03:37;95905.28;;;26.40;34.02
65127;BME280;51927;49.080;19.652;2023-02-15T00:03:42;95903.41;;;26.40;34.06
65127;BME280;51927;49.080;19.652;2023-02-15T00:03:48;95903.41;;;26.40;34.24
65127;BME280;51927;49.080;19.652;2023-02-15T00:03:53;95907.66;;;26.41;34.18
65127;BME280;51927;49.080;19.652;2023-02-15T00:03:58;95906.88;;;26.41;34.09
65127;BME280;51927;49.080;19.652;2023-02-15T00:04:04;95905.28;;;26.40;34.00
65127;BME280;51927;49.080;19.652;2023-02-15T00:04:11;95903.41;;;26.40;33.92
65127;BME280;51927;49.080;19.652;2023-02-15T00:04:18;95903.41;;;26.40;34.17
65127;BME280;51927;49.080;19.652;2023-02-15T00:04:24;95908.78;;;26.40;34.08
65127;BME280;51927;49.080;19.652;2023-02-15T00:04:49;95906.09;;;26.40;33.90
65127;BME280;51927;49.080;19.652;2023-02-15T00:04:55;95906.09;;;26.40;34.11
65127;BME280;51927;49.080;19.652;2023-02-15T00:05:01;95905.28;;;26.40;34.12
65127;BME280;51927;49.080;19.652;2023-02-15T00:05:06;95900.72;;;26.40;34.12
65127;BME280;51927;49.080;19.652;2023-02-15T00:05:11;95903.41;;;26.40;34.17
65127;BME280;51927;49.080;19.652;2023-02-15T00:05:16;95903.41;;;26.40;33.96
65127;BME280;51927;49.080;19.652;2023-02-15T00:05:22;95900.72;;;26.40;34.01
65127;BME280;51927;49.080;19.652;2023-02-15T00:05:27;95911.47;;;26.40;34.20
65127;BME280;51927;49.080;19.652;2023-02-15T00:05:34;95908.78;;;26.40;33.94
65127;BME280;51927;49.080;19.652;2023-02-15T00:05:39;95906.09;;;26.40;33.86
65127;BME280;51927;49.080;19.652;2023-02-15T00:05:44;95901.50;;;26.41;33.99
65127;BME280;51927;49.080;19.652;2023-02-15T00:05:49;95902.28;;;26.41;33.94
65127;BME280;51927;49.080;19.652;2023-02-15T00:05:56;95910.34;;;26.41;33.80
65127;BME280;51927;49.080;19.652;2023-02-15T00:06:01;95907.66;;;26.41;33.82
65127;BME280;51927;49.080;19.652;2023-02-15T00:06:07;95907.66;;;26.41;33.89
65127;BME280;51927;49.080;19.652;2023-02-15T00:06:12;95906.09;;;26.40;33.88
65127;BME280;51927;49.080;19.652;2023-02-15T00:06:17;95905.28;;;26.40;34.03
65127;BME280;51927;49.080;19.652;2023-02-15T00:06:23;95907.19;;;26.39;33.96
65127;BME280;51927;49.080;19.652;2023-02-15T00:06:28;95902.59;;;26.40;34.27
65127;BME280;51927;49.080;19.652;2023-02-15T00:06:33;95905.28;;;26.40;33.99
65127;BME280;51927;49.080;19.652;2023-02-15T00:06:39;95899.13;;;26.39;34.10
65127;BME280;51927;49.080;19.652;2023-02-15T00:06:44;95904.50;;;26.39;34.22
65127;BME280;51927;49.080;19.652;2023-02-15T00:06:50;95901.81;;;26.39;34.21
65127;BME280;51927;49.080;19.652;2023-02-15T00:06:55;95909.88;;;26.39;34.19
65127;BME280;51927;49.080;19.652;2023-02-15T00:07:00;95901.03;;;26.39;34.28
65127;BME280;51927;49.080;19.652;2023-02-15T00:07:05;95906.38;;;26.39;34.18
65127;BME280;51927;49.080;19.652;2023-02-15T00:07:10;95901.03;;;26.39;33.85
65127;BME280;51927;49.080;19.652;2023-02-15T00:07:17;95903.72;;;26.39;34.22
65127;BME280;51927;49.080;19.652;2023-02-15T00:07:22;95907.19;;;26.39;34.10
65127;BME280;51927;49.080;19.652;2023-02-15T00:07:27;95903.41;;;26.40;34.20
65127;BME280;51927;49.080;19.652;2023-02-15T00:07:33;95906.09;;;26.40;34.07
65127;BME280;51927;49.080;19.652;2023-02-15T00:07:38;95902.28;;;26.41;34.19
65127;BME280;51927;49.080;19.652;2023-02-15T00:07:43;95902.28;;;26.41;34.32
65127;BME280;51927;49.080;19.652;2023-02-15T00:07:48;95902.28;;;26.41;34.13
65127;BME280;51927;49.080;19.652;2023-02-15T00:07:53;95908.47;;;26.42;34.24
65127;BME280;51927;49.080;19.652;2023-02-15T00:07:59;95906.09;;;26.40;34.13
65127;BME280;51927;49.080;19.652;2023-02-15T00:08:04;95906.09;;;26.40;34.15
65127;BME280;51927;49.080;19.652;2023-02-15T00:08:09;95906.09;;;26.40;34.08
65127;BME280;51927;49.080;19.652;2023-02-15T00:08:14;95906.09;;;26.40;33.90
65127;BME280;51927;49.080;19.652;2023-02-15T00:08:19;95900.72;;;26.40;34.05
65127;BME280;51927;49.080;19.652;2023-02-15T00:08:24;95906.09;;;26.40;34.07
65127;BME280;51927;49.080;19.652;2023-02-15T00:08:30;95908.78;;;26.40;34.18
65127;BME280;51927;49.080;19.652;2023-02-15T00:08:35;95899.13;;;26.39;33.93
65127;BME280;51927;49.080;19.652;2023-02-15T00:08:40;95909.88;;;26.39;33.87
65127;BME280;51927;49.080;19.652;2023-02-15T00:08:46;95911.47;;;26.40;34.07
65127;BME280;51927;49.080;19.652;2023-02-15T00:08:51;95911.47;;;26.40;34.21
65127;BME280;51927;49.080;19.652;2023-02-15T00:08:56;95907.19;;;26.39;34.21
65127;BME280;51927;49.080;19.652;2023-02-15T00:09:02;95904.19;;;26.41;34.19
65127;BME280;51927;49.080;19.652;2023-02-15T00:09:08;95910.66;;;26.40;34.24
65127;BME280;51927;49.080;19.652;2023-02-15T00:09:14;95906.09;;;26.40;34.21
65127;BME280;51927;49.080;19.652;2023-02-15T00:09:19;95906.09;;;26.40;34.04
65127;BME280;51927;49.080;19.652;2023-02-15T00:09:24;95906.09;;;26.40;34.06
65127;BME280;51927;49.080;19.652;2023-02-15T00:09:29;95903.41;;;26.40;33.96
65127;BME280;51927;49.080;19.652;2023-02-15T00:09:34;95907.19;;;26.39;33.97
65127;BME280;51927;49.080;19.652;2023-02-15T00:09:40;95907.19;;;26.39;34.07
65127;BME280;51927;49.080;19.652;2023-02-15T00:09:45;95903.72;;;26.39;34.08
65127;BME280;51927;49.080;19.652;2023-02-15T00:09:51;95901.03;;;26.39;34.33
65127;BME280;51927;49.080;19.652;2023-02-15T00:09:56;95897.50;;;26.38;34.07
65127;BME280;51927;49.080;19.652;2023-02-15T00:10:01;95909.88;;;26.39;33.95
65127;BME280;51927;49.080;19.652;2023-02-15T00:10:07;95908.25;;;26.38;33.95
65127;BME280;51927;49.080;19.652;2023-02-15T00:10:12;95909.06;;;26.39;34.12
65127;BME280;51927;49.080;19.652;2023-02-15T00:10:17;95905.56;;;26.38;33.85
65127;BME280;51927;49.080;19.652;2023-02-15T00:10:22;95906.38;;;26.39;34.10
65127;BME280;51927;49.080;19.652;2023-02-15T00:10:28;95910.66;;;26.40;34.12
65127;BME280;51927;49.080;19.652;2023-02-15T00:10:33;95903.72;;;26.39;33.83
65127;BME280;51927;49.080;19.652;2023-02-15T00:10:38;95906.38;;;26.39;34.08
65127;BME280;51927;49.080;19.652;2023-02-15T00:10:43;95904.50;;;26.39;33.91
65127;BME280;51927;49.080;19.652;2023-02-15T00:10:49;95901.81;;;26.39;34.24
65127;BME280;51927;49.080;19.652;2023-02-15T00:11:03;95905.28;;;26.40;34.02
65127;BME280;51927;49.080;19.652;2023-02-15T00:11:09;95904.50;;;26.39;34.09
65127;BME280;51927;49.080;19.652;2023-02-15T00:11:15;95898.63;;;26.37;33.97
65127;BME280;51927;49.080;19.652;2023-02-15T00:11:21;95909.06;;;26.39;34.07
65127;BME280;51927;49.080;19.652;2023-02-15T00:11:44;95903.19;;;26.37;33.86
65127;BME280;51927;49.080;19.652;2023-02-15T00:11:54;95911.25;;;26.37;33.90
65127;BME280;51927;49.080;19.652;2023-02-15T00:12:00;95907.78;;;26.36;34.21
65127;BME280;51927;49.080;19.652;2023-02-15T00:12:05;95908.56;;;26.37;34.17
65127;BME280;51927;49.080;19.652;2023-02-15T00:12:10;95907.78;;;26.36;33.96
65127;BME280;51927;49.080;19.652;2023-02-15T00:12:15;95909.38;;;26.37;33.95
65127;BME280;51927;49.080;19.652;2023-02-15T00:12:21;95905.88;;;26.37;34.08
65127;BME280;51927;49.080;19.652;2023-02-15T00:12:26;95907.47;;;26.38;34.09
65127;BME280;51927;49.080;19.652;2023-02-15T00:12:31;95908.56;;;26.37;33.90
65127;BME280;51927;49.080;19.652;2023-02-15T00:12:36;95906.69;;;26.37;34.15
65127;BME280;51927;49.080;19.652;2023-02-15T00:12:41;95905.56;;;26.38;33.81
65127;BME280;51927;49.080;19.652;2023-02-15T00:12:47;95908.25;;;26.38;34.25
65127;BME280;51927;49.080;19.652;2023-02-15T00:12:52;95907.19;;;26.39;34.30
65127;BME280;51927;49.080;19.652;2023-02-15T00:12:59;95912.06;;;26.37;34.26
65127;BME280;51927;49.080;19.652;2023-02-15T00:13:04;95905.56;;;26.38;34.19
65127;BME280;51927;49.080;19.652;2023-02-15T00:13:09;95908.25;;;26.38;34.22
65127;BME280;51927;49.080;19.652;2023-02-15T00:13:15;95904.78;;;26.38;34.24
65127;BME280;51927;49.080;19.652;2023-02-15T00:13:20;95909.38;;;26.37;33.90
65127;BME280;51927;49.080;19.652;2023-02-15T00:13:25;95908.25;;;26.38;34.10
65127;BME280;51927;49.080;19.652;2023-02-15T00:13:30;95912.06;;;26.37;34.25
65127;BME280;51927;49.080;19.652;2023-02-15T00:13:35;95902.09;;;26.38;34.36
65127;BME280;51927;49.080;19.652;2023-02-15T00:13:41;95902.88;;;26.38;33.96
65127;BME280;51927;49.080;19.652;2023-02-15T00:13:46;95912.06;;;26.37;33.91
65127;BME280;51927;49.080;19.652;2023-02-15T00:13:51;95913.63;;;26.38;34.24
65127;BME280;51927;49.080;19.652;2023-02-15T00:13:57;95905.56;;;26.38;34.08
65127;BME280;51927;49.080;19.652;2023-02-15T00:14:04;95907.47;;;26.38;34.04
65127;BME280;51927;49.080;19.652;2023-02-15T00:14:13;95907.47;;;26.38;34.01
65127;BME280;51927;49.080;19.652;2023-02-15T00:14:20;95902.41;;;26.36;34.03
65127;BME280;51927;49.080;19.652;2023-02-15T00:14:25;95911.25;;;26.37;34.14
65127;BME280;51927;49.080;19.652;2023-02-15T00:14:30;95909.38;;;26.37;34.06
65127;BME280;51927;49.080;19.652;2023-02-15T00:14:36;95909.38;;;26.37;33.85
65127;BME280;51927;49.080;19.652;2023-02-15T00:14:41;95908.25;;;26.38;33.89
65127;BME280;51927;49.080;19.652;2023-02-15T00:14:47;95908.25;;;26.38;33.91
65127;BME280;51927;49.080;19.652;2023-02-15T00:14:52;95904.00;;;26.37;34.32
65127;BME280;51927;49.080;19.652;2023-02-15T00:14:57;95911.25;;;26.37;34.31
65127;BME280;51927;49.080;19.652;2023-02-15T00:15:02;95905.88;;;26.37;34.10
65127;BME280;51927;49.080;19.652;2023-02-15T00:15:08;95917.44;;;26.37;34.16
65127;BME280;51927;49.080;19.652;2023-02-15T00:15:13;95912.06;;;26.37;34.07
65127;BME280;51927;49.080;19.652;2023-02-15T00:15:18;95906.69;;;26.37;34.21
65127;BME280;51927;49.080;19.652;2023-02-15T00:15:23;95906.69;;;26.37;34.07
65127;BME280;51927;49.080;19.652;2023-02-15T00:15:30;95917.44;;;26.37;34.13
65127;BME280;51927;49.080;19.652;2023-02-15T00:15:36;95907.47;;;26.38;33.97
65127;BME280;51927;49.080;19.652;2023-02-15T00:15:41;95912.06;;;26.37;34.09
65127;BME280;51927;49.080;19.652;2023-02-15T00:15:46;95907.47;;;26.38;34.06
65127;BME280;51927;49.080;19.652;2023-02-15T00:15:51;95912.06;;;26.37;34.06
65127;BME280;51927;49.080;19.652;2023-02-15T00:16:00;95906.69;;;26.37;34.04
65127;BME280;51927;49.080;19.652;2023-02-15T00:16:06;95913.63;;;26.38;34.04
65127;BME280;51927;49.080;19.652;2023-02-15T00:16:12;95905.56;;;26.38;34.14
65127;BME280;51927;49.080;19.652;2023-02-15T00:16:17;95913.63;;;26.38;34.08
65127;BME280;51927;49.080;19.652;2023-02-15T00:16:23;95913.63;;;26.38;34.30
65127;BME280;51927;49.080;19.652;2023-02-15T00:16:28;95912.84;;;26.38;34.04
65127;BME280;51927;49.080;19.652;2023-02-15T00:16:33;95910.16;;;26.38;33.91
65127;BME280;51927;49.080;19.652;2023-02-15T00:16:39;95906.69;;;26.37;33.97
65127;BME280;51927;49.080;19.652;2023-02-15T00:16:45;95909.38;;;26.37;34.06
65127;BME280;51927;49.080;19.652;2023-02-15T00:16:51;95913.94;;;26.37;34.39
65127;BME280;51927;49.080;19.652;2023-02-15T00:16:57;95914.75;;;26.37;34.07
65127;BME280;51927;49.080;19.652;2023-02-15T00:17:04;95908.56;;;26.37;33.97
65127;BME280;51927;49.080;19.652;2023-02-15T00:17:10;95915.53;;;26.38;33.89
65127;BME280;51927;49.080;19.652;2023-02-15T00:17:15;95908.25;;;26.38;33.89
65127;BME280;51927;49.080;19.652;2023-02-15T00:17:20;95910.16;;;26.38;34.12
65127;BME280;51927;49.080;19.652;2023-02-15T00:17:28;95912.06;;;26.37;34.17
65127;BME280;51927;49.080;19.652;2023-02-15T00:17:34;95910.16;;;26.38;34.06
65127;BME280;51927;49.080;19.652;2023-02-15T00:17:39;95904.78;;;26.38;34.16
65127;BME280;51927;49.080;19.652;2023-02-15T00:17:44;95907.47;;;26.38;34.03
65127;BME280;51927;49.080;19.652;2023-02-15T00:17:49;95912.06;;;26.37;34.21
65127;BME280;51927;49.080;19.652;2023-02-15T00:17:54;95908.25;;;26.38;34.26
65127;BME280;51927;49.080;19.652;2023-02-15T00:18:01;95914.44;;;26.39;34.03
65127;BME280;51927;49.080;19.652;2023-02-15T00:18:06;95910.94;;;26.38;34.17
65127;BME280;51927;49.080;19.652;2023-02-15T00:18:11;95906.69;;;26.37;34.06
65127;BME280;51927;49.080;19.652;2023-02-15T00:18:16;95913.63;;;26.38;34.09
65127;BME280;51927;49.080;19.652;2023-02-15T00:18:22;95904.00;;;26.37;34.14
65127;BME280;51927;49.080;19.652;2023-02-15T00:18:27;95910.16;;;26.38;34.32
65127;BME280;51927;49.080;19.652;2023-02-15T00:18:32;95909.38;;;26.37;34.20
65127;BME280;51927;49.080;19.652;2023-02-15T00:18:40;95906.69;;;26.37;34.27
65127;BME280;51927;49.080;19.652;2023-02-15T00:18:45;95912.84;;;26.38;34.22
65127;BME280;51927;49.080;19.652;2023-02-15T00:18:51;95904.00;;;26.37;34.04
65127;BME280;51927;49.080;19.652;2023-02-15T00:18:56;95912.06;;;26.37;34.24
65127;BME280;51927;49.080;19.652;2023-02-15T00:19:02;95911.75;;;26.39;34.07
65127;BME280;51927;49.080;19.652;2023-02-15T00:19:07;95909.38;;;26.37;34.02
65127;BME280;51927;49.080;19.652;2023-02-15T00:19:14;95905.09;;;26.36;34.17
65127;BME280;51927;49.080;19.652;2023-02-15T00:19:20;95906.69;;;26.37;34.00
65127;BME280;51927;49.080;19.652;2023-02-15T00:19:26;95904.78;;;26.38;34.32
65127;BME280;51927;49.080;19.652;2023-02-15T00:19:31;95910.94;;;26.38;34.24
65127;BME280;51927;49.080;19.652;2023-02-15T00:19:36;95902.88;;;26.38;33.96
65127;BME280;51927;49.080;19.652;2023-02-15T00:19:41;95901.31;;;26.37;34.01
65127;BME280;51927;49.080;19.652;2023-02-15T00:19:47;95904.78;;;26.38;34.38
65127;BME280;51927;49.080;19.652;2023-02-15T00:19:52;95910.16;;;26.38;34.14
65127;BME280;51927;49.080;19.652;2023-02-15T00:19:57;95904.00;;;26.37;33.92
65127;BME280;51927;49.080;19.652;2023-02-15T00:20:02;95910.16;;;26.38;33.89
65127;BME280;51927;49.080;19.652;2023-02-15T00:20:08;95910.94;;;26.38;34.09
65127;BME280;51927;49.080;19.652;2023-02-15T00:20:13;95907.47;;;26.38;34.07
65127;BME280;51927;49.080;19.652;2023-02-15T00:20:18;95913.63;;;26.38;34.03
65127;BME280;51927;49.080;19.652;2023-02-15T00:20:23;95904.78;;;26.38;34.18
65127;BME280;51927;49.080;19.652;2023-02-15T00:20:29;95909.38;;;26.37;34.09
65127;BME280;51927;49.080;19.652;2023-02-15T00:20:34;95905.56;;;26.38;33.85
65127;BME280;51927;49.080;19.652;2023-02-15T00:20:39;95909.06;;;26.39;33.93
65127;BME280;51927;49.080;19.652;2023-02-15T00:20:44;95904.78;;;26.38;33.94
65127;BME280;51927;49.080;19.652;2023-02-15T00:20:49;95904.50;;;26.39;34.03
65127;BME280;51927;49.080;19.652;2023-02-15T00:20:55;95907.19;;;26.39;34.20
65127;BME280;51927;49.080;19.652;2023-02-15T00:21:07;95910.66;;;26.40;34.06
65127;BME280;51927;49.080;19.652;2023-02-15T00:21:12;95908.25;;;26.38;34.12
65127;BME280;51927;49.080;19.652;2023-02-15T00:21:17;95904.00;;;26.37;33.82
65127;BME280;51927;49.080;19.652;2023-02-15T00:21:22;95907.47;;;26.38;34.02
65127;BME280;51927;49.080;19.652;2023-02-15T00:21:29;95908.25;;;26.38;34.04
65127;BME280;51927;49.080;19.652;2023-02-15T00:21:35;95905.88;;;26.37;34.02
65127;BME280;51927;49.080;19.652;2023-02-15T00:21:40;95902.88;;;26.38;34.03
65127;BME280;51927;49.080;19.652;2023-02-15T00:21:46;95901.31;;;26.37;34.16
65127;BME280;51927;49.080;19.652;2023-02-15T00:21:51;95901.31;;;26.37;34.07
65127;BME280;51927;49.080;19.652;2023-02-15T00:21:56;95903.19;;;26.37;34.09
65127;BME280;51927;49.080;19.652;2023-02-15T00:22:02;95901.31;;;26.37;34.04
65127;BME280;51927;49.080;19.652;2023-02-15T00:22:07;95901.31;;;26.37;34.08
65127;BME280;51927;49.080;19.652;2023-02-15T00:22:12;95905.09;;;26.36;34.19
65127;BME280;51927;49.080;19.652;2023-02-15T00:22:17;95905.09;;;26.36;33.96
65127;BME280;51927;49.080;19.652;2023-02-15T00:22:23;95905.09;;;26.36;33.97
65127;BME280;51927;49.080;19.652;2023-02-15T00:22:28;95899.72;;;26.36;34.33
65127;BME280;51927;49.080;19.652;2023-02-15T00:22:33;95905.09;;;26.36;34.21
65127;BME280;51927;49.080;19.652;2023-02-15T00:22:38;95905.09;;;26.36;34.27
65127;BME280;51927;49.080;19.652;2023-02-15T00:22:43;95906.69;;;26.37;34.04
65127;BME280;51927;49.080;19.652;2023-02-15T00:22:49;95910.16;;;26.38;33.89
65127;BME280;51927;49.080;19.652;2023-02-15T00:22:54;95902.41;;;26.36;34.07
65127;BME280;51927;49.080;19.652;2023-02-15T00:22:59;95909.38;;;26.37;34.29
65127;BME280;51927;49.080;19.652;2023-02-15T00:23:04;95901.31;;;26.37;34.14
65127;BME280;51927;49.080;19.652;2023-02-15T00:23:09;95902.88;;;26.38;34.10
65127;BME280;51927;49.080;19.652;2023-02-15T00:23:15;95904.00;;;26.37;34.10
65127;BME280;51927;49.080;19.652;2023-02-15T00:23:20;95907.47;;;26.38;34.14
65127;BME280;51927;49.080;19.652;2023-02-15T00:23:25;95912.06;;;26.37;34.13
65127;BME280;51927;49.080;19.652;2023-02-15T00:23:31;95906.69;;;26.37;33.91
65127;BME280;51927;49.080;19.652;2023-02-15T00:23:36;95905.09;;;26.36;34.13
65127;BME280;51927;49.080;19.652;2023-02-15T00:23:41;95907.78;;;26.36;34.09
65127;BME280;51927;49.080;19.652;2023-02-15T00:23:47;95905.88;;;26.37;33.89
65127;BME280;51927;49.080;19.652;2023-02-15T00:23:52;95904.78;;;26.38;34.27
65127;BME280;51927;49.080;19.652;2023-02-15T00:23:58;95909.38;;;26.37;34.09
65127;BME280;51927;49.080;19.652;2023-02-15T00:24:04;95904.00;;;26.37;34.06
65127;BME280;51927;49.080;19.652;2023-02-15T00:24:10;95904.00;;;26.37;34.19
65127;BME280;51927;49.080;19.652;2023-02-15T00:24:16;95905.88;;;26.37;34.22
65127;BME280;51927;49.080;19.652;2023-02-15T00:24:22;95912.84;;;26.38;34.06
65127;BME280;51927;49.080;19.652;2023-02-15T00:24:27;95908.56;;;26.37;34.12
65127;BME280;51927;49.080;19.652;2023-02-15T00:24:32;95905.09;;;26.36;34.09
65127;BME280;51927;49.080;19.652;2023-02-15T00:24:37;95911.25;;;26.37;34.14
65127;BME280;51927;49.080;19.652;2023-02-15T00:24:43;95905.88;;;26.37;34.04
65127;BME280;51927;49.080;19.652;2023-02-15T00:24:48;95905.88;;;26.37;34.22
65127;BME280;51927;49.080;19.652;2023-02-15T00:24:54;95907.47;;;26.38;33.91
65127;BME280;51927;49.080;19.652;2023-02-15T00:25:00;95906.69;;;26.37;33.92
65127;BME280;51927;49.080;19.652;2023-02-15T00:25:05;95906.69;;;26.37;34.07
65127;BME280;51927;49.080;19.652;2023-02-15T00:25:10;95902.88;;;26.38;34.06
65127;BME280;51927;49.080;19.652;2023-02-15T00:25:15;95906.69;;;26.37;34.20
65127;BME280;51927;49.080;19.652;2023-02-15T00:25:20;95907.47;;;26.38;33.87
65127;BME280;51927;49.080;19.652;2023-02-15T00:25:26;95917.44;;;26.37;34.40
65127;BME280;51927;49.080;19.652;2023-02-15T00:25:31;95912.06;;;26.37;34.07
65127;BME280;51927;49.080;19.652;2023-02-15T00:25:36;95904.00;;;26.37;34.07
65127;BME280;51927;49.080;19.652;2023-02-15T00:25:41;95912.06;;;26.37;34.17
65127;BME280;51927;49.080;19.652;2023-02-15T00:25:46;95909.38;;;26.37;34.20
65127;BME280;51927;49.080;19.652;2023-02-15T00:25:52;95904.00;;;26.37;34.09
65127;BME280;51927;49.080;19.652;2023-02-15T00:26:10;95909.66;;;26.36;34.08
65127;BME280;51927;49.080;19.652;2023-02-15T00:26:15;95906.69;;;26.37;34.09
65127;BME280;51927;49.080;19.652;2023-02-15T00:26:20;95910.44;;;26.36;34.26
65127;BME280;51927;49.080;19.652;2023-02-15T00:26:26;95912.84;;;26.38;34.08
65127;BME280;51927;49.080;19.652;2023-02-15T00:26:32;95905.09;;;26.36;34.13
65127;BME280;51927;49.080;19.652;2023-02-15T00:26:38;95908.25;;;26.38;34.08
65127;BME280;51927;49.080;19.652;2023-02-15T00:26:43;95901.31;;;26.37;34.10
65127;BME280;51927;49.080;19.652;2023-02-15T00:26:49;95908.25;;;26.38;34.31
65127;BME280;51927;49.080;19.652;2023-02-15T00:26:54;95905.56;;;26.38;34.26
65127;BME280;51927;49.080;19.652;2023-02-15T00:26:59;95902.09;;;26.38;34.01
65127;BME280;51927;49.080;19.652;2023-02-15T00:27:04;95908.25;;;26.38;34.27
65127;BME280;51927;49.080;19.652;2023-02-15T00:27:10;95911.25;;;26.37;34.04
65127;BME280;51927;49.080;19.652;2023-02-15T00:27:15;95902.41;;;26.36;34.10
65127;BME280;51927;49.080;19.652;2023-02-15T00:27:20;95899.72;;;26.36;33.86
65127;BME280;51927;49.080;19.652;2023-02-15T00:27:25;95907.47;;;26.38;34.26
65127;BME280;51927;49.080;19.652;2023-02-15T00:27:30;95912.06;;;26.37;33.87
65127;BME280;51927;49.080;19.652;2023-02-15T00:27:36;95905.09;;;26.36;34.22
65127;BME280;51927;49.080;19.652;2023-02-15T00:27:41;95902.41;;;26.36;33.91
65127;BME280;51927;49.080;19.652;2023-02-15T00:27:46;95907.78;;;26.36;34.28
65127;BME280;51927;49.080;19.652;2023-02-15T00:27:51;95905.09;;;26.36;34.19
65127;BME280;51927;49.080;19.652;2023-02-15T00:27:56;95908.84;;;26.35;34.27
65127;BME280;51927;49.080;19.652;2023-02-15T00:28:01;95911.25;;;26.37;34.12
65127;BME280;51927;49.080;19.652;2023-02-15T00:28:07;95904.28;;;26.36;34.08
65127;BME280;51927;49.080;19.652;2023-02-15T00:28:12;95906.97;;;26.36;34.32
65127;BME280;51927;49.080;19.652;2023-02-15T00:28:17;95904.28;;;26.36;34.23
65127;BME280;51927;49.080;19.652;2023-02-15T00:28:22;95913.44;;;26.34;33.93
65127;BME280;51927;49.080;19.652;2023-02-15T00:28:28;95906.16;;;26.35;34.14
65127;BME280;51927;49.080;19.652;2023-02-15T00:28:34;95901.63;;;26.36;34.31
65127;BME280;51927;49.080;19.652;2023-02-15T00:28:39;95911.53;;;26.35;34.28
65127;BME280;51927;49.080;19.652;2023-02-15T00:28:45;95908.84;;;26.35;34.08
65127;BME280;51927;49.080;19.652;2023-02-15T00:28:50;95909.66;;;26.36;34.03
65127;BME280;51927;49.080;19.652;2023-02-15T00:28:55;95912.06;;;26.37;34.17
65127;BME280;51927;49.080;19.652;2023-02-15T00:29:01;95905.88;;;26.37;34.09
65127;BME280;51927;49.080;19.652;2023-02-15T00:29:06;95905.88;;;26.37;34.08
65127;BME280;51927;49.080;19.652;2023-02-15T00:29:12;95905.09;;;26.36;34.03
65127;BME280;51927;49.080;19.652;2023-02-15T00:29:18;95903.19;;;26.37;34.07
65127;BME280;51927;49.080;19.652;2023-02-15T00:29:24;95905.09;;;26.36;34.07
65127;BME280;51927;49.080;19.652;2023-02-15T00:29:29;95904.28;;;26.36;33.91
65127;BME280;51927;49.080;19.652;2023-02-15T00:29:34;95910.44;;;26.36;34.22
65127;BME280;51927;49.080;19.652;2023-02-15T00:29:40;95906.69;;;26.37;34.03
65127;BME280;51927;49.080;19.652;2023-02-15T00:29:46;95913.13;;;26.36;33.91
65127;BME280;51927;49.080;19.652;2023-02-15T00:29:51;95912.06;;;26.37;33.95